KBHB 160319Z AUTO VRB05KT 10SM OVC013 20/18 A2989 RMK AO2 LTG DSNT N AND E $